createdAt,value
2018-07-21T18:52:39.512Z,9.10
2018-07-21T18:55:08.374Z,8.43
2018-07-21T18:57:37.368Z,8.23
2018-07-21T19:00:06.301Z,8.53
2018-07-21T19:02:35.106Z,8.00
2018-07-21T19:05:04.050Z,8.57
2018-07-21T19:07:34.706Z,8.37
2018-07-21T19:10:04.015Z,8.10
2018-07-21T19:12:37.938Z,8.67
2018-07-21T19:15:07.750Z,7.83
2018-07-21T19:17:36.609Z,8.20
2018-07-21T19:20:11.096Z,8.00
2018-07-21T19:22:39.974Z,6.93
2018-07-21T19:25:14.109Z,8.03
2018-07-21T19:27:42.921Z,9.27
2018-07-21T19:30:11.750Z,8.13
2018-07-21T19:32:46.211Z,7.80
2018-07-21T19:35:15.025Z,7.73
2018-07-21T19:37:47.721Z,6.83
2018-07-21T19:40:18.467Z,7.30
2018-07-21T19:45:46.661Z,6.80
2018-07-21T19:48:15.421Z,7.60
2018-07-21T19:50:45.187Z,6.33
2018-07-21T19:53:14.396Z,8.00
2018-07-21T19:55:43.172Z,6.30
2018-07-21T19:58:11.975Z,6.80
2018-07-21T20:00:41.221Z,7.27
2018-07-21T20:03:10.035Z,7.90
2018-07-21T20:05:38.812Z,6.70
2018-07-21T20:08:10.756Z,6.70
2018-07-21T20:10:39.547Z,7.13
2018-07-21T20:13:08.763Z,7.27
2018-07-21T20:15:37.572Z,7.70
2018-07-21T20:18:06.424Z,7.17
2018-07-21T20:20:35.236Z,7.07
2018-07-21T20:23:04.380Z,7.03
2018-07-21T20:25:33.185Z,8.00
2018-07-21T20:28:02.078Z,7.10
2018-07-21T20:30:30.968Z,6.87
2018-07-21T20:32:59.895Z,6.40
2018-07-21T20:35:28.791Z,7.13
2018-07-21T20:37:57.942Z,6.57
2018-07-21T20:40:26.734Z,6.70
2018-07-21T20:42:55.550Z,6.73
2018-07-21T20:45:24.541Z,6.30
2018-07-21T20:47:53.362Z,7.07
2018-07-21T20:50:21.738Z,6.57
2018-07-21T20:52:50.875Z,7.13
2018-07-21T20:55:19.657Z,6.77
2018-07-21T20:57:48.481Z,6.63
2018-07-21T21:00:17.719Z,7.03
2018-07-21T21:02:46.470Z,7.30
2018-07-21T21:05:15.277Z,6.13
2018-07-21T21:07:44.115Z,6.73
2018-07-21T21:10:12.932Z,6.67
2018-07-21T21:12:41.731Z,6.40
2018-07-21T21:15:11.021Z,7.17
2018-07-21T21:17:39.799Z,6.83
2018-07-21T21:20:08.613Z,6.53
2018-07-21T21:22:37.599Z,6.40
2018-07-21T21:25:06.707Z,7.10
2018-07-21T21:27:35.534Z,6.60
2018-07-21T21:30:04.401Z,6.50
2018-07-21T21:32:33.184Z,6.83
2018-07-21T21:35:01.997Z,7.10
2018-07-21T21:37:30.868Z,6.87
2018-07-21T21:39:59.670Z,6.40
2018-07-21T21:42:28.526Z,7.43
2018-07-21T21:44:57.296Z,7.20
2018-07-21T21:47:26.117Z,6.67
2018-07-21T21:49:55.082Z,7.10
2018-07-21T21:52:23.878Z,7.00
2018-07-21T21:54:52.866Z,7.23
2018-07-21T21:57:21.372Z,7.60
2018-07-21T21:59:50.186Z,7.40
2018-07-21T22:02:19.034Z,7.27
2018-07-21T22:04:47.913Z,7.00
2018-07-21T22:07:16.634Z,7.57
2018-07-21T22:09:45.429Z,7.40
2018-07-21T22:12:14.589Z,7.60
2018-07-21T22:14:43.361Z,7.90
2018-07-21T22:17:12.178Z,7.17
2018-07-21T22:19:41.550Z,8.50
2018-07-21T22:22:10.347Z,7.50
2018-07-21T22:24:39.172Z,7.40
2018-07-21T22:27:08.228Z,7.80
2018-07-21T22:29:37.031Z,7.80
2018-07-21T22:32:05.887Z,7.17
2018-07-21T22:34:34.729Z,7.40
2018-07-21T22:37:03.999Z,8.10
2018-07-21T22:39:32.804Z,7.87
2018-07-21T22:42:01.622Z,8.47
2018-07-21T22:44:30.430Z,8.00
2018-07-21T22:46:59.227Z,7.90
2018-07-21T22:49:28.048Z,7.60
2018-07-21T22:51:56.858Z,7.40
2018-07-21T22:54:25.662Z,7.50
2018-07-21T22:56:54.537Z,7.50
2018-07-21T22:59:23.406Z,8.10
2018-07-21T23:01:52.188Z,8.03
2018-07-21T23:04:21.009Z,8.33
2018-07-21T23:06:49.825Z,8.23
2018-07-21T23:09:18.602Z,8.23
2018-07-21T23:11:47.413Z,8.77
2018-07-21T23:14:16.207Z,7.73
2018-07-21T23:16:45.036Z,7.60
2018-07-21T23:19:14.070Z,8.37
2018-07-21T23:21:42.861Z,8.43
2018-07-21T23:24:11.666Z,9.03
2018-07-21T23:26:40.520Z,8.40
2018-07-21T23:29:09.375Z,8.87
2018-07-21T23:31:38.189Z,8.60
2018-07-21T23:34:07.054Z,8.80
2018-07-21T23:36:35.866Z,8.40
2018-07-21T23:39:07.425Z,8.60
2018-07-21T23:41:36.253Z,8.20
2018-07-21T23:44:05.076Z,9.20
2018-07-21T23:46:33.889Z,8.77
2018-07-21T23:49:02.779Z,9.27
2018-07-21T23:51:31.577Z,8.90
2018-07-21T23:54:00.435Z,8.90
2018-07-21T23:56:29.432Z,8.57
2018-07-21T23:58:58.234Z,11.20
